LGIR/HER METAR and TAF weather

Enter ICAO airport designator
Station Type Date Time Source
LGIR METAR 2019/08/18 09:20 UTC NOAA

LGIR 180920Z 33016KT 9999 FEW020 27/17 Q1013 NOSIG


Station Type Date Time Source
LGIR Decoded METAR 2019/08/18 09:20 UTC NOAA

Station name not available
Aug 18, 2019 - 05:20 AM EDT / 2019.08.18 0920 UTC
Wind: from the NNW (330 degrees) at 18 MPH (16 KT):0
Visibility: greater than 7 mile(s):0
Sky conditions: mostly clear
Temperature: 80 F (27 C)
Dew Point: 62 F (17 C)
Relative Humidity: 54%
Pressure (altimeter): 29.91 in. Hg (1013 hPa)
ob: LGIR 180920Z 33016KT 9999 FEW020 27/17 Q1013 NOSIG
cycle: 9

Station Type Date Time Source
LGIR TAF 2019/08/18 06:12 UTC NOAA

TAF LGIR 180500Z 1806/1906 32016KT 9999 FEW020
TEMPO 1806/1818 33020G30KT

Example: see airport list